sensor_id;sensor_type;location;lat;lon;timestamp;temperature;humidity
41142;SHT31;63666;52.284;20.890;2023-03-05T00:01:55;20.39;32.29
41142;SHT31;63666;52.284;20.890;2023-03-05T00:04:26;20.36;32.25
41142;SHT31;63666;52.284;20.890;2023-03-05T00:06:57;20.33;32.22
41142;SHT31;63666;52.284;20.890;2023-03-05T00:09:32;20.30;32.19
41142;SHT31;63666;52.284;20.890;2023-03-05T00:12:08;20.23;32.22
41142;SHT31;63666;52.284;20.890;2023-03-05T00:14:41;20.18;32.28
41142;SHT31;63666;52.284;20.890;2023-03-05T00:17:16;20.16;32.27
41142;SHT31;63666;52.284;20.890;2023-03-05T00:19:46;20.13;32.24
41142;SHT31;63666;52.284;20.890;2023-03-05T00:22:19;20.07;32.30
41142;SHT31;63666;52.284;20.890;2023-03-05T00:24:50;20.07;32.23
41142;SHT31;63666;52.284;20.890;2023-03-05T00:27:21;20.03;32.24
41142;SHT31;63666;52.284;20.890;2023-03-05T00:29:51;19.95;32.31
41142;SHT31;63666;52.284;20.890;2023-03-05T00:32:22;19.92;32.30
41142;SHT31;63666;52.284;20.890;2023-03-05T00:34:53;19.85;32.35
41142;SHT31;63666;52.284;20.890;2023-03-05T00:37:24;19.82;32.36
41142;SHT31;63666;52.284;20.890;2023-03-05T00:39:56;19.83;32.31
41142;SHT31;63666;52.284;20.890;2023-03-05T00:42:27;19.79;32.28
41142;SHT31;63666;52.284;20.890;2023-03-05T00:44:57;19.78;32.28
41142;SHT31;63666;52.284;20.890;2023-03-05T00:47:28;19.73;32.29
41142;SHT31;63666;52.284;20.890;2023-03-05T00:50:01;19.72;32.28
41142;SHT31;63666;52.284;20.890;2023-03-05T00:52:36;19.64;32.32
41142;SHT31;63666;52.284;20.890;2023-03-05T00:55:07;19.59;32.36
41142;SHT31;63666;52.284;20.890;2023-03-05T00:57:38;19.60;32.29
41142;SHT31;63666;52.284;20.890;2023-03-05T01:00:11;19.56;32.30
41142;SHT31;63666;52.284;20.890;2023-03-05T01:02:46;19.58;32.27
41142;SHT31;63666;52.284;20.890;2023-03-05T01:05:16;19.54;32.29
41142;SHT31;63666;52.284;20.890;2023-03-05T01:07:48;19.53;32.31
41142;SHT31;63666;52.284;20.890;2023-03-05T01:10:26;19.51;32.29
41142;SHT31;63666;52.284;20.890;2023-03-05T01:12:57;19.47;32.31
41142;SHT31;63666;52.284;20.890;2023-03-05T01:15:27;19.48;32.25
41142;SHT31;63666;52.284;20.890;2023-03-05T01:17:58;19.45;32.21
41142;SHT31;63666;52.284;20.890;2023-03-05T01:20:31;19.42;32.31
41142;SHT31;63666;52.284;20.890;2023-03-05T01:23:04;19.39;32.36
41142;SHT31;63666;52.284;20.890;2023-03-05T01:25:34;19.36;32.34
41142;SHT31;63666;52.284;20.890;2023-03-05T01:28:06;19.36;32.31
41142;SHT31;63666;52.284;20.890;2023-03-05T01:30:38;19.33;32.32
41142;SHT31;63666;52.284;20.890;2023-03-05T01:33:12;19.31;32.30
41142;SHT31;63666;52.284;20.890;2023-03-05T01:35:45;19.26;32.30
41142;SHT31;63666;52.284;20.890;2023-03-05T01:38:16;19.26;32.31
41142;SHT31;63666;52.284;20.890;2023-03-05T01:40:49;19.28;32.18
41142;SHT31;63666;52.284;20.890;2023-03-05T01:43:24;19.24;32.23
41142;SHT31;63666;52.284;20.890;2023-03-05T01:48:57;19.25;32.12
41142;SHT31;63666;52.284;20.890;2023-03-05T01:51:35;19.16;32.22
41142;SHT31;63666;52.284;20.890;2023-03-05T01:54:10;19.13;32.16
41142;SHT31;63666;52.284;20.890;2023-03-05T01:56:43;19.15;32.16
41142;SHT31;63666;52.284;20.890;2023-03-05T01:59:16;19.12;32.11
41142;SHT31;63666;52.284;20.890;2023-03-05T02:01:47;19.10;32.07
41142;SHT31;63666;52.284;20.890;2023-03-05T02:04:22;19.11;32.13
41142;SHT31;63666;52.284;20.890;2023-03-05T02:07:01;19.10;32.12
41142;SHT31;63666;52.284;20.890;2023-03-05T02:09:36;19.06;32.25
41142;SHT31;63666;52.284;20.890;2023-03-05T02:12:08;19.09;32.17
41142;SHT31;63666;52.284;20.890;2023-03-05T02:14:44;19.06;32.17
41142;SHT31;63666;52.284;20.890;2023-03-05T02:17:17;19.03;32.19
41142;SHT31;63666;52.284;20.890;2023-03-05T02:19:49;18.99;32.19
41142;SHT31;63666;52.284;20.890;2023-03-05T02:22:22;18.98;32.18
41142;SHT31;63666;52.284;20.890;2023-03-05T02:24:54;18.96;32.23
41142;SHT31;63666;52.284;20.890;2023-03-05T02:27:26;18.93;32.27
41142;SHT31;63666;52.284;20.890;2023-03-05T02:30:01;18.89;32.31
41142;SHT31;63666;52.284;20.890;2023-03-05T02:32:33;18.92;32.26
41142;SHT31;63666;52.284;20.890;2023-03-05T02:35:06;18.89;32.27
41142;SHT31;63666;52.284;20.890;2023-03-05T02:37:37;18.84;32.28
41142;SHT31;63666;52.284;20.890;2023-03-05T02:40:16;18.84;32.29
41142;SHT31;63666;52.284;20.890;2023-03-05T02:42:47;18.82;32.29
41142;SHT31;63666;52.284;20.890;2023-03-05T02:45:17;18.80;32.30
41142;SHT31;63666;52.284;20.890;2023-03-05T02:47:47;18.79;32.29
41142;SHT31;63666;52.284;20.890;2023-03-05T02:50:21;18.78;32.33
41142;SHT31;63666;52.284;20.890;2023-03-05T02:52:55;18.82;32.26
41142;SHT31;63666;52.284;20.890;2023-03-05T02:55:25;18.82;32.19
41142;SHT31;63666;52.284;20.890;2023-03-05T02:57:55;18.80;32.21
41142;SHT31;63666;52.284;20.890;2023-03-05T03:00:29;18.78;32.21
41142;SHT31;63666;52.284;20.890;2023-03-05T03:02:59;18.75;32.28
41142;SHT31;63666;52.284;20.890;2023-03-05T03:05:30;18.70;32.29
41142;SHT31;63666;52.284;20.890;2023-03-05T03:08:00;18.72;32.28
41142;SHT31;63666;52.284;20.890;2023-03-05T03:10:34;18.73;32.24
41142;SHT31;63666;52.284;20.890;2023-03-05T03:13:06;18.70;32.25
41142;SHT31;63666;52.284;20.890;2023-03-05T03:15:37;18.67;32.31
41142;SHT31;63666;52.284;20.890;2023-03-05T03:18:07;18.67;32.26
41142;SHT31;63666;52.284;20.890;2023-03-05T03:20:39;18.70;32.23
41142;SHT31;63666;52.284;20.890;2023-03-05T03:23:13;18.63;32.26
41142;SHT31;63666;52.284;20.890;2023-03-05T03:25:46;18.64;32.22
41142;SHT31;63666;52.284;20.890;2023-03-05T03:28:16;18.61;32.29
41142;SHT31;63666;52.284;20.890;2023-03-05T03:30:46;18.57;32.30
41142;SHT31;63666;52.284;20.890;2023-03-05T03:33:17;18.61;32.23
41142;SHT31;63666;52.284;20.890;2023-03-05T03:35:47;18.63;32.20
41142;SHT31;63666;52.284;20.890;2023-03-05T03:38:19;18.62;32.20
41142;SHT31;63666;52.284;20.890;2023-03-05T03:40:52;18.59;32.18
41142;SHT31;63666;52.284;20.890;2023-03-05T03:43:27;18.58;32.20
41142;SHT31;63666;52.284;20.890;2023-03-05T03:46:00;18.53;32.30
41142;SHT31;63666;52.284;20.890;2023-03-05T03:48:34;18.55;32.21
41142;SHT31;63666;52.284;20.890;2023-03-05T03:51:06;18.56;32.23
41142;SHT31;63666;52.284;20.890;2023-03-05T03:53:36;18.58;32.16
41142;SHT31;63666;52.284;20.890;2023-03-05T03:56:07;18.58;32.12
41142;SHT31;63666;52.284;20.890;2023-03-05T03:58:37;18.56;32.17
41142;SHT31;63666;52.284;20.890;2023-03-05T04:01:07;18.59;32.11
41142;SHT31;63666;52.284;20.890;2023-03-05T04:03:37;18.53;32.15
41142;SHT31;63666;52.284;20.890;2023-03-05T04:06:08;18.55;32.16
41142;SHT31;63666;52.284;20.890;2023-03-05T04:08:39;18.58;32.09
41142;SHT31;63666;52.284;20.890;2023-03-05T04:11:09;18.56;32.13
41142;SHT31;63666;52.284;20.890;2023-03-05T04:13:42;18.57;32.15
41142;SHT31;63666;52.284;20.890;2023-03-05T04:16:17;18.55;32.14
41142;SHT31;63666;52.284;20.890;2023-03-05T04:18:50;18.55;32.09
41142;SHT31;63666;52.284;20.890;2023-03-05T04:21:22;18.55;32.10
41142;SHT31;63666;52.284;20.890;2023-03-05T04:23:53;18.55;32.10
41142;SHT31;63666;52.284;20.890;2023-03-05T04:26:24;18.51;32.10
41142;SHT31;63666;52.284;20.890;2023-03-05T04:28:57;18.50;32.16
41142;SHT31;63666;52.284;20.890;2023-03-05T04:31:27;18.51;32.14
41142;SHT31;63666;52.284;20.890;2023-03-05T04:34:03;18.53;32.13
41142;SHT31;63666;52.284;20.890;2023-03-05T04:36:35;18.50;32.25
41142;SHT31;63666;52.284;20.890;2023-03-05T04:39:09;18.49;32.29
41142;SHT31;63666;52.284;20.890;2023-03-05T04:41:39;18.51;32.47
41142;SHT31;63666;52.284;20.890;2023-03-05T04:44:10;18.51;32.50
41142;SHT31;63666;52.284;20.890;2023-03-05T04:46:40;18.51;32.50
41142;SHT31;63666;52.284;20.890;2023-03-05T04:49:12;18.52;32.50
41142;SHT31;63666;52.284;20.890;2023-03-05T04:51:45;18.53;32.54
41142;SHT31;63666;52.284;20.890;2023-03-05T04:54:20;18.54;32.58
41142;SHT31;63666;52.284;20.890;2023-03-05T04:56:52;18.52;32.67
41142;SHT31;63666;52.284;20.890;2023-03-05T04:59:25;18.51;32.75
41142;SHT31;63666;52.284;20.890;2023-03-05T05:01:55;18.50;32.80
41142;SHT31;63666;52.284;20.890;2023-03-05T05:04:25;18.50;32.80
41142;SHT31;63666;52.284;20.890;2023-03-05T05:07:01;18.49;32.83
41142;SHT31;63666;52.284;20.890;2023-03-05T05:09:34;18.45;32.85
41142;SHT31;63666;52.284;20.890;2023-03-05T05:12:04;18.46;32.92
41142;SHT31;63666;52.284;20.890;2023-03-05T05:14:37;18.46;33.06
41142;SHT31;63666;52.284;20.890;2023-03-05T05:17:06;18.44;33.04
41142;SHT31;63666;52.284;20.890;2023-03-05T05:19:37;18.44;33.10
41142;SHT31;63666;52.284;20.890;2023-03-05T05:22:07;18.41;33.10
41142;SHT31;63666;52.284;20.890;2023-03-05T05:24:39;18.33;33.22
41142;SHT31;63666;52.284;20.890;2023-03-05T05:27:09;18.39;33.17
41142;SHT31;63666;52.284;20.890;2023-03-05T05:29:46;18.45;33.19
41142;SHT31;63666;52.284;20.890;2023-03-05T05:32:17;18.49;33.20
41142;SHT31;63666;52.284;20.890;2023-03-05T05:34:53;18.53;33.29
41142;SHT31;63666;52.284;20.890;2023-03-05T05:37:28;18.56;33.24
41142;SHT31;63666;52.284;20.890;2023-03-05T05:39:59;18.63;33.27
41142;SHT31;63666;52.284;20.890;2023-03-05T05:42:30;18.72;33.24
41142;SHT31;63666;52.284;20.890;2023-03-05T05:45:04;18.80;33.15
41142;SHT31;63666;52.284;20.890;2023-03-05T05:47:38;18.87;33.12
41142;SHT31;63666;52.284;20.890;2023-03-05T05:50:09;18.88;33.11
41142;SHT31;63666;52.284;20.890;2023-03-05T05:52:41;18.94;33.02
41142;SHT31;63666;52.284;20.890;2023-03-05T05:55:16;18.99;32.98
41142;SHT31;63666;52.284;20.890;2023-03-05T05:57:49;19.03;32.89
41142;SHT31;63666;52.284;20.890;2023-03-05T06:00:20;19.08;32.79
41142;SHT31;63666;52.284;20.890;2023-03-05T06:02:51;19.14;32.69
41142;SHT31;63666;52.284;20.890;2023-03-05T06:05:20;19.18;32.56
41142;SHT31;63666;52.284;20.890;2023-03-05T06:07:52;19.20;32.51
41142;SHT31;63666;52.284;20.890;2023-03-05T06:10:22;19.29;32.43
41142;SHT31;63666;52.284;20.890;2023-03-05T06:12:54;19.33;32.32
41142;SHT31;63666;52.284;20.890;2023-03-05T06:15:25;19.42;32.21
41142;SHT31;63666;52.284;20.890;2023-03-05T06:18:00;19.51;32.03
41142;SHT31;63666;52.284;20.890;2023-03-05T06:20:30;19.56;31.95
41142;SHT31;63666;52.284;20.890;2023-03-05T06:23:01;19.60;31.98
41142;SHT31;63666;52.284;20.890;2023-03-05T06:25:31;19.64;31.86
41142;SHT31;63666;52.284;20.890;2023-03-05T06:28:02;19.69;31.80
41142;SHT31;63666;52.284;20.890;2023-03-05T06:30:33;19.74;31.89
41142;SHT31;63666;52.284;20.890;2023-03-05T06:33:08;19.77;31.89
41142;SHT31;63666;52.284;20.890;2023-03-05T06:35:39;19.82;31.75
41142;SHT31;63666;52.284;20.890;2023-03-05T06:38:11;19.87;31.74
41142;SHT31;63666;52.284;20.890;2023-03-05T06:40:42;19.89;31.74
41142;SHT31;63666;52.284;20.890;2023-03-05T06:43:11;19.91;31.63
41142;SHT31;63666;52.284;20.890;2023-03-05T06:45:41;19.94;31.57
41142;SHT31;63666;52.284;20.890;2023-03-05T06:48:20;19.97;31.58
41142;SHT31;63666;52.284;20.890;2023-03-05T06:50:54;20.00;31.50
41142;SHT31;63666;52.284;20.890;2023-03-05T06:53:29;19.99;31.55
41142;SHT31;63666;52.284;20.890;2023-03-05T06:56:02;20.02;31.49
41142;SHT31;63666;52.284;20.890;2023-03-05T06:58:36;20.03;31.48
41142;SHT31;63666;52.284;20.890;2023-03-05T07:01:07;20.05;31.40
41142;SHT31;63666;52.284;20.890;2023-03-05T07:03:40;20.06;31.36
41142;SHT31;63666;52.284;20.890;2023-03-05T07:06:12;20.09;31.31
41142;SHT31;63666;52.284;20.890;2023-03-05T07:08:50;20.14;31.28
41142;SHT31;63666;52.284;20.890;2023-03-05T07:11:23;20.19;31.27
41142;SHT31;63666;52.284;20.890;2023-03-05T07:13:57;20.22;31.18
41142;SHT31;63666;52.284;20.890;2023-03-05T07:16:36;20.26;31.07
41142;SHT31;63666;52.284;20.890;2023-03-05T07:19:06;20.28;31.07
41142;SHT31;63666;52.284;20.890;2023-03-05T07:21:40;20.29;31.00
41142;SHT31;63666;52.284;20.890;2023-03-05T07:24:11;20.32;30.97
41142;SHT31;63666;52.284;20.890;2023-03-05T07:26:46;20.35;30.89
41142;SHT31;63666;52.284;20.890;2023-03-05T07:29:22;20.36;30.84
41142;SHT31;63666;52.284;20.890;2023-03-05T07:31:55;20.38;30.81
41142;SHT31;63666;52.284;20.890;2023-03-05T07:34:30;20.40;30.74
41142;SHT31;63666;52.284;20.890;2023-03-05T07:37:00;20.43;30.63
41142;SHT31;63666;52.284;20.890;2023-03-05T07:39:30;20.46;30.59
41142;SHT31;63666;52.284;20.890;2023-03-05T07:42:03;20.48;30.55
41142;SHT31;63666;52.284;20.890;2023-03-05T07:44:42;20.52;30.49
41142;SHT31;63666;52.284;20.890;2023-03-05T07:47:16;20.54;30.48
41142;SHT31;63666;52.284;20.890;2023-03-05T07:49:47;20.55;30.44
41142;SHT31;63666;52.284;20.890;2023-03-05T07:52:19;20.57;30.37
41142;SHT31;63666;52.284;20.890;2023-03-05T07:54:49;20.58;30.30
41142;SHT31;63666;52.284;20.890;2023-03-05T07:57:24;20.60;30.21
41142;SHT31;63666;52.284;20.890;2023-03-05T07:59:55;20.61;30.13
41142;SHT31;63666;52.284;20.890;2023-03-05T08:02:26;20.60;30.07
41142;SHT31;63666;52.284;20.890;2023-03-05T08:04:56;20.63;30.02
41142;SHT31;63666;52.284;20.890;2023-03-05T08:07:29;20.64;29.98
41142;SHT31;63666;52.284;20.890;2023-03-05T08:09:59;20.65;29.90
41142;SHT31;63666;52.284;20.890;2023-03-05T08:12:31;20.66;29.88
41142;SHT31;63666;52.284;20.890;2023-03-05T08:15:08;20.65;29.86
41142;SHT31;63666;52.284;20.890;2023-03-05T08:17:40;20.67;29.82
41142;SHT31;63666;52.284;20.890;2023-03-05T08:20:18;20.67;29.73
41142;SHT31;63666;52.284;20.890;2023-03-05T08:22:50;20.68;29.70
41142;SHT31;63666;52.284;20.890;2023-03-05T08:25:24;20.70;29.62
41142;SHT31;63666;52.284;20.890;2023-03-05T08:27:56;20.71;29.61
41142;SHT31;63666;52.284;20.890;2023-03-05T08:30:28;20.70;29.59
41142;SHT31;63666;52.284;20.890;2023-03-05T08:33:02;20.71;29.59
41142;SHT31;63666;52.284;20.890;2023-03-05T08:35:32;20.73;29.54
41142;SHT31;63666;52.284;20.890;2023-03-05T08:38:03;20.72;29.51
41142;SHT31;63666;52.284;20.890;2023-03-05T08:40:33;20.72;29.44
41142;SHT31;63666;52.284;20.890;2023-03-05T08:43:06;20.71;29.47
41142;SHT31;63666;52.284;20.890;2023-03-05T08:45:38;20.72;29.49
41142;SHT31;63666;52.284;20.890;2023-03-05T08:48:14;20.74;29.53
41142;SHT31;63666;52.284;20.890;2023-03-05T08:50:52;20.72;29.61
41142;SHT31;63666;52.284;20.890;2023-03-05T08:53:25;20.70;29.67
41142;SHT31;63666;52.284;20.890;2023-03-05T08:56:01;20.69;29.67
41142;SHT31;63666;52.284;20.890;2023-03-05T08:58:38;20.67;29.67
41142;SHT31;63666;52.284;20.890;2023-03-05T09:01:13;20.67;29.71
41142;SHT31;63666;52.284;20.890;2023-03-05T09:03:50;20.67;30.04
41142;SHT31;63666;52.284;20.890;2023-03-05T09:06:21;20.68;30.11
41142;SHT31;63666;52.284;20.890;2023-03-05T09:08:51;20.66;29.97
41142;SHT31;63666;52.284;20.890;2023-03-05T09:11:22;20.65;29.95
41142;SHT31;63666;52.284;20.890;2023-03-05T09:13:57;20.60;29.85
41142;SHT31;63666;52.284;20.890;2023-03-05T09:16:28;20.59;29.79
41142;SHT31;63666;52.284;20.890;2023-03-05T09:18:59;20.57;29.77
41142;SHT31;63666;52.284;20.890;2023-03-05T09:21:29;20.56;29.77
41142;SHT31;63666;52.284;20.890;2023-03-05T09:24:01;20.59;30.00
41142;SHT31;63666;52.284;20.890;2023-03-05T09:26:32;20.58;30.76
41142;SHT31;63666;52.284;20.890;2023-03-05T09:29:05;20.60;31.33
41142;SHT31;63666;52.284;20.890;2023-03-05T09:31:41;20.65;31.64
41142;SHT31;63666;52.284;20.890;2023-03-05T09:34:15;20.67;31.54
41142;SHT31;63666;52.284;20.890;2023-03-05T09:36:45;20.71;31.34
41142;SHT31;63666;52.284;20.890;2023-03-05T09:39:16;20.74;31.15
41142;SHT31;63666;52.284;20.890;2023-03-05T09:41:53;20.80;31.08
41142;SHT31;63666;52.284;20.890;2023-03-05T09:44:53;20.83;30.91
41142;SHT31;63666;52.284;20.890;2023-03-05T09:47:44;20.84;30.88
41142;SHT31;63666;52.284;20.890;2023-03-05T09:50:29;20.85;30.79
41142;SHT31;63666;52.284;20.890;2023-03-05T09:53:11;20.86;30.76
41142;SHT31;63666;52.284;20.890;2023-03-05T09:55:51;20.89;30.69
41142;SHT31;63666;52.284;20.890;2023-03-05T09:58:31;20.91;30.76
41142;SHT31;63666;52.284;20.890;2023-03-05T10:01:12;20.92;30.82
41142;SHT31;63666;52.284;20.890;2023-03-05T10:03:52;20.95;30.82
41142;SHT31;63666;52.284;20.890;2023-03-05T10:06:28;20.97;30.69
41142;SHT31;63666;52.284;20.890;2023-03-05T10:09:03;21.01;30.68
41142;SHT31;63666;52.284;20.890;2023-03-05T10:11:45;21.03;30.72
41142;SHT31;63666;52.284;20.890;2023-03-05T10:14:23;21.05;30.71
41142;SHT31;63666;52.284;20.890;2023-03-05T10:23:35;21.01;30.93
41142;SHT31;63666;52.284;20.890;2023-03-05T10:26:31;21.02;31.01
41142;SHT31;63666;52.284;20.890;2023-03-05T10:29:21;21.03;31.08
41142;SHT31;63666;52.284;20.890;2023-03-05T10:32:16;21.07;31.03
41142;SHT31;63666;52.284;20.890;2023-03-05T10:35:05;21.08;31.12
41142;SHT31;63666;52.284;20.890;2023-03-05T10:38:09;21.11;31.08
41142;SHT31;63666;52.284;20.890;2023-03-05T10:40:59;21.12;31.18
41142;SHT31;63666;52.284;20.890;2023-03-05T10:43:39;21.11;31.15
41142;SHT31;63666;52.284;20.890;2023-03-05T10:46:21;21.09;31.15
41142;SHT31;63666;52.284;20.890;2023-03-05T10:49:00;21.10;31.11
41142;SHT31;63666;52.284;20.890;2023-03-05T10:51:39;21.09;31.10
41142;SHT31;63666;52.284;20.890;2023-03-05T10:54:22;21.10;31.31
41142;SHT31;63666;52.284;20.890;2023-03-05T10:57:02;21.12;31.26
41142;SHT31;63666;52.284;20.890;2023-03-05T10:59:47;21.10;31.19
41142;SHT31;63666;52.284;20.890;2023-03-05T11:02:19;21.10;31.15
41142;SHT31;63666;52.284;20.890;2023-03-05T11:04:51;21.09;31.15
41142;SHT31;63666;52.284;20.890;2023-03-05T11:07:31;21.09;31.18
41142;SHT31;63666;52.284;20.890;2023-03-05T11:10:06;21.09;31.10
41142;SHT31;63666;52.284;20.890;2023-03-05T11:12:45;21.07;31.17
41142;SHT31;63666;52.284;20.890;2023-03-05T11:15:27;21.09;31.10
41142;SHT31;63666;52.284;20.890;2023-03-05T11:18:15;21.10;30.84
41142;SHT31;63666;52.284;20.890;2023-03-05T11:20:58;21.10;30.66
41142;SHT31;63666;52.284;20.890;2023-03-05T11:23:39;21.09;30.56
41142;SHT31;63666;52.284;20.890;2023-03-05T11:26:18;21.09;30.34
41142;SHT31;63666;52.284;20.890;2023-03-05T11:28:57;21.11;30.26
41142;SHT31;63666;52.284;20.890;2023-03-05T11:31:31;21.11;30.14
41142;SHT31;63666;52.284;20.890;2023-03-05T11:34:03;21.10;30.11
41142;SHT31;63666;52.284;20.890;2023-03-05T11:36:41;21.10;30.13
41142;SHT31;63666;52.284;20.890;2023-03-05T11:39:15;21.10;30.19
41142;SHT31;63666;52.284;20.890;2023-03-05T11:41:49;21.10;30.20
41142;SHT31;63666;52.284;20.890;2023-03-05T11:44:22;21.10;30.21
41142;SHT31;63666;52.284;20.890;2023-03-05T11:46:58;21.10;30.24
41142;SHT31;63666;52.284;20.890;2023-03-05T11:49:32;21.12;30.24
41142;SHT31;63666;52.284;20.890;2023-03-05T11:52:11;21.12;30.26
41142;SHT31;63666;52.284;20.890;2023-03-05T11:54:55;21.13;30.33
41142;SHT31;63666;52.284;20.890;2023-03-05T11:57:32;21.12;30.34
41142;SHT31;63666;52.284;20.890;2023-03-05T12:00:16;21.10;30.42
41142;SHT31;63666;52.284;20.890;2023-03-05T12:02:52;21.11;30.47
41142;SHT31;63666;52.284;20.890;2023-03-05T12:05:27;21.10;30.46
41142;SHT31;63666;52.284;20.890;2023-03-05T12:07:58;21.09;30.58
41142;SHT31;63666;52.284;20.890;2023-03-05T12:10:34;21.08;30.53
41142;SHT31;63666;52.284;20.890;2023-03-05T12:13:05;21.09;30.49
41142;SHT31;63666;52.284;20.890;2023-03-05T12:15:45;21.08;30.46
41142;SHT31;63666;52.284;20.890;2023-03-05T12:18:32;21.07;30.53
41142;SHT31;63666;52.284;20.890;2023-03-05T12:21:15;21.05;30.74
41142;SHT31;63666;52.284;20.890;2023-03-05T12:23:55;21.05;30.99
41142;SHT31;63666;52.284;20.890;2023-03-05T12:29:30;21.06;31.08
41142;SHT31;63666;52.284;20.890;2023-03-05T12:35:35;21.09;31.17
41142;SHT31;63666;52.284;20.890;2023-03-05T12:38:18;21.10;31.19
41142;SHT31;63666;52.284;20.890;2023-03-05T12:44:23;21.35;37.05
41142;SHT31;63666;52.284;20.890;2023-03-05T12:49:52;21.50;36.94
41142;SHT31;63666;52.284;20.890;2023-03-05T12:52:25;21.54;37.43
41142;SHT31;63666;52.284;20.890;2023-03-05T12:55:11;21.57;38.08
41142;SHT31;63666;52.284;20.890;2023-03-05T12:57:51;21.61;38.12
41142;SHT31;63666;52.284;20.890;2023-03-05T13:00:26;21.66;37.44
41142;SHT31;63666;52.284;20.890;2023-03-05T13:03:03;21.76;34.99
41142;SHT31;63666;52.284;20.890;2023-03-05T13:05:46;21.63;33.43
41142;SHT31;63666;52.284;20.890;2023-03-05T13:08:20;21.55;31.92
41142;SHT31;63666;52.284;20.890;2023-03-05T13:10:52;21.48;31.79
41142;SHT31;63666;52.284;20.890;2023-03-05T13:13:27;21.46;31.77
41142;SHT31;63666;52.284;20.890;2023-03-05T13:15:59;21.42;31.71
41142;SHT31;63666;52.284;20.890;2023-03-05T13:18:30;21.44;31.67
41142;SHT31;63666;52.284;20.890;2023-03-05T13:21:12;21.39;31.78
41142;SHT31;63666;52.284;20.890;2023-03-05T13:23:46;21.36;31.99
41142;SHT31;63666;52.284;20.890;2023-03-05T13:26:24;21.36;31.95
41142;SHT31;63666;52.284;20.890;2023-03-05T13:29:07;21.35;31.98
41142;SHT31;63666;52.284;20.890;2023-03-05T13:31:42;21.35;31.95
41142;SHT31;63666;52.284;20.890;2023-03-05T13:34:16;21.35;31.96
41142;SHT31;63666;52.284;20.890;2023-03-05T13:36:50;21.35;32.10
41142;SHT31;63666;52.284;20.890;2023-03-05T13:39:26;21.33;32.29
41142;SHT31;63666;52.284;20.890;2023-03-05T13:42:00;21.33;32.24
41142;SHT31;63666;52.284;20.890;2023-03-05T13:44:35;21.38;32.88
41142;SHT31;63666;52.284;20.890;2023-03-05T13:47:08;21.55;35.01
41142;SHT31;63666;52.284;20.890;2023-03-05T13:49:45;21.59;34.83
41142;SHT31;63666;52.284;20.890;2023-03-05T13:52:24;21.65;35.67
41142;SHT31;63666;52.284;20.890;2023-03-05T13:54:58;21.78;35.99
41142;SHT31;63666;52.284;20.890;2023-03-05T13:57:39;21.86;35.42
41142;SHT31;63666;52.284;20.890;2023-03-05T14:03:08;22.09;33.74
41142;SHT31;63666;52.284;20.890;2023-03-05T14:05:57;21.95;33.22
41142;SHT31;63666;52.284;20.890;2023-03-05T14:08:50;21.89;33.42
41142;SHT31;63666;52.284;20.890;2023-03-05T14:11:41;21.92;33.36
41142;SHT31;63666;52.284;20.890;2023-03-05T14:14:28;21.87;33.49
41142;SHT31;63666;52.284;20.890;2023-03-05T14:17:20;21.87;32.78
41142;SHT31;63666;52.284;20.890;2023-03-05T14:20:06;21.74;32.79
41142;SHT31;63666;52.284;20.890;2023-03-05T14:23:24;21.59;32.88
41142;SHT31;63666;52.284;20.890;2023-03-05T14:26:16;21.56;32.86
41142;SHT31;63666;52.284;20.890;2023-03-05T14:28:57;21.62;32.72
41142;SHT31;63666;52.284;20.890;2023-03-05T14:31:33;21.75;32.69
41142;SHT31;63666;52.284;20.890;2023-03-05T14:34:21;21.79;32.71
41142;SHT31;63666;52.284;20.890;2023-03-05T14:37:04;21.78;32.44
41142;SHT31;63666;52.284;20.890;2023-03-05T14:39:44;21.73;32.59
41142;SHT31;63666;52.284;20.890;2023-03-05T14:42:24;21.64;32.84
41142;SHT31;63666;52.284;20.890;2023-03-05T14:45:11;21.45;33.08
41142;SHT31;63666;52.284;20.890;2023-03-05T14:47:43;21.38;33.27
41142;SHT31;63666;52.284;20.890;2023-03-05T14:50:15;21.42;33.27
41142;SHT31;63666;52.284;20.890;2023-03-05T14:52:51;21.69;32.98
41142;SHT31;63666;52.284;20.890;2023-03-05T14:55:30;21.63;33.25
41142;SHT31;63666;52.284;20.890;2023-03-05T14:58:10;21.47;33.60
41142;SHT31;63666;52.284;20.890;2023-03-05T15:00:45;21.42;33.65
41142;SHT31;63666;52.284;20.890;2023-03-05T15:03:24;21.43;33.70
41142;SHT31;63666;52.284;20.890;2023-03-05T15:06:02;21.39;33.76
41142;SHT31;63666;52.284;20.890;2023-03-05T15:08:39;21.40;34.16
41142;SHT31;63666;52.284;20.890;2023-03-05T15:11:15;21.41;34.14
41142;SHT31;63666;52.284;20.890;2023-03-05T15:13:50;21.43;34.19
41142;SHT31;63666;52.284;20.890;2023-03-05T15:16:27;21.46;34.32
41142;SHT31;63666;52.284;20.890;2023-03-05T15:19:05;21.44;34.36
41142;SHT31;63666;52.284;20.890;2023-03-05T15:21:36;21.42;34.37
41142;SHT31;63666;52.284;20.890;2023-03-05T15:24:07;21.38;34.45
41142;SHT31;63666;52.284;20.890;2023-03-05T15:26:38;21.40;34.53
41142;SHT31;63666;52.284;20.890;2023-03-05T15:29:11;21.40;34.46
41142;SHT31;63666;52.284;20.890;2023-03-05T15:31:42;21.40;34.38
41142;SHT31;63666;52.284;20.890;2023-03-05T15:34:15;21.36;34.35
41142;SHT31;63666;52.284;20.890;2023-03-05T15:36:52;21.34;34.34
41142;SHT31;63666;52.284;20.890;2023-03-05T15:39:27;21.34;34.41
41142;SHT31;63666;52.284;20.890;2023-03-05T15:42:04;21.33;34.49
41142;SHT31;63666;52.284;20.890;2023-03-05T15:44:39;21.30;34.45
41142;SHT31;63666;52.284;20.890;2023-03-05T15:47:14;21.30;34.38
41142;SHT31;63666;52.284;20.890;2023-03-05T15:49:44;21.30;34.38
41142;SHT31;63666;52.284;20.890;2023-03-05T15:52:16;21.29;34.35
41142;SHT31;63666;52.284;20.890;2023-03-05T15:54:47;21.25;34.32
41142;SHT31;63666;52.284;20.890;2023-03-05T15:57:16;21.24;34.32
41142;SHT31;63666;52.284;20.890;2023-03-05T15:59:49;21.38;34.09
41142;SHT31;63666;52.284;20.890;2023-03-05T16:02:23;21.49;33.81
41142;SHT31;63666;52.284;20.890;2023-03-05T16:04:55;21.30;34.37
41142;SHT31;63666;52.284;20.890;2023-03-05T16:07:36;21.22;34.57
41142;SHT31;63666;52.284;20.890;2023-03-05T16:10:21;21.22;34.66
41142;SHT31;63666;52.284;20.890;2023-03-05T16:12:56;21.22;34.74
41142;SHT31;63666;52.284;20.890;2023-03-05T16:15:32;21.18;34.80
41142;SHT31;63666;52.284;20.890;2023-03-05T16:18:05;21.18;34.82
41142;SHT31;63666;52.284;20.890;2023-03-05T16:20:47;21.18;34.85
41142;SHT31;63666;52.284;20.890;2023-03-05T16:23:20;21.19;34.94
41142;SHT31;63666;52.284;20.890;2023-03-05T16:25:56;21.18;34.97
41142;SHT31;63666;52.284;20.890;2023-03-05T16:28:33;21.16;34.94